Time;durP1;ratioP1;P1;durP2;ratioP2;P2;SDS_P1;SDS_P2;PMS_P1;PMS_P2;Temp;Humidity;BMP_temperature;BMP_pressure;BME280_temperature;BME280_humidity;BME280_pressure;Samples;Min_cycle;Max_cycle;Signal;HPM_P1;HPM_P2
2022/10/12 00:00:50;;;;;;;;;;;22.20;90.00;;;;;;5117823;28;19994;-38
2022/10/12 00:03:16;;;;;;;;;;;22.20;90.00;;;;;;5131771;27;20002;-39
2022/10/12 00:05:41;;;;;;;;;;;22.20;90.00;;;;;;5137991;27;19912;-39
2022/10/12 00:08:07;;;;;;;;;;;22.20;90.00;;;;;;5138102;27;19915;-39
2022/10/12 00:10:33;;;;;;;;;;;22.20;90.10;;;;;;5138066;27;19947;-39
2022/10/12 00:12:58;;;;;;;;;;;22.20;90.30;;;;;;5136989;27;20010;-39
2022/10/12 00:15:24;;;;;;;;;;;22.20;90.00;;;;;;5138133;27;19907;-39
2022/10/12 00:17:50;;;;;;;;;;;22.20;90.00;;;;;;5137847;27;20269;-38
2022/10/12 00:20:16;;;;;;;;;;;22.30;90.00;;;;;;5137742;27;20319;-39
2022/10/12 00:22:41;;;;;;;;;;;22.20;89.90;;;;;;5138062;27;19956;-38
2022/10/12 00:25:07;;;;;;;;;;;22.20;89.90;;;;;;5119556;27;19961;-39
2022/10/12 00:27:32;;;;;;;;;;;22.30;90.00;;;;;;5137590;27;19911;-39
2022/10/12 00:29:58;;;;;;;;;;;22.30;90.00;;;;;;5137510;27;19915;-39
2022/10/12 00:32:23;;;;;;;;;;;22.20;89.90;;;;;;5137841;27;19918;-38
2022/10/12 00:34:49;;;;;;;;;;;22.20;90.00;;;;;;5137779;27;20239;-39
2022/10/12 00:37:14;;;;;;;;;;;22.20;89.90;;;;;;5137674;27;19907;-38
2022/10/12 00:39:40;;;;;;;;;;;22.30;90.00;;;;;;5119417;27;19914;-39
2022/10/12 00:42:05;;;;;;;;;;;22.30;90.00;;;;;;5137664;27;20344;-39
2022/10/12 00:44:42;;;;;;;;;;;22.20;90.00;;;;;;5137729;27;20356;-39
2022/10/12 00:47:39;;;;;;;;;;;22.20;89.90;;;;;;5137567;27;20369;-39
2022/10/12 00:50:16;;;;;;;;;;;22.20;90.00;;;;;;5091335;27;19965;-38
2022/10/12 00:52:54;;;;;;;;;;;22.20;89.90;;;;;;5137073;27;20441;-39
2022/10/12 00:55:21;;;;;;;;;;;22.20;89.90;;;;;;5137463;27;19907;-39
2022/10/12 00:57:47;;;;;;;;;;;22.20;89.90;;;;;;5137314;27;20377;-38
2022/10/12 01:00:13;;;;;;;;;;;22.20;89.90;;;;;;5137322;27;19968;-39
2022/10/12 01:02:40;;;;;;;;;;;22.20;90.00;;;;;;5128687;27;20399;-39
2022/10/12 01:05:06;;;;;;;;;;;22.20;90.00;;;;;;5116594;28;19912;-39
2022/10/12 01:07:31;;;;;;;;;;;22.20;89.90;;;;;;5116120;28;19927;-39
2022/10/12 01:09:57;;;;;;;;;;;22.20;89.90;;;;;;5116450;28;19911;-39
2022/10/12 01:12:23;;;;;;;;;;;22.20;89.90;;;;;;5116451;28;19912;-39
2022/10/12 01:14:49;;;;;;;;;;;22.20;90.00;;;;;;5116478;28;20235;-38
2022/10/12 01:17:14;;;;;;;;;;;22.20;90.00;;;;;;5116436;28;19907;-39
2022/10/12 01:19:48;;;;;;;;;;;22.20;90.00;;;;;;5115976;28;20386;-39
2022/10/12 01:22:19;;;;;;;;;;;22.20;90.00;;;;;;5116210;28;19912;-38
2022/10/12 01:24:51;;;;;;;;;;;22.20;90.00;;;;;;5116265;28;19908;-39
2022/10/12 01:27:29;;;;;;;;;;;22.20;90.10;;;;;;5116156;28;19908;-39
2022/10/12 01:30:03;;;;;;;;;;;22.20;90.10;;;;;;5116028;28;19911;-38
2022/10/12 01:32:43;;;;;;;;;;;22.20;90.10;;;;;;5115780;28;19911;-39
2022/10/12 01:35:15;;;;;;;;;;;22.20;90.10;;;;;;5115724;28;20286;-39
2022/10/12 01:37:59;;;;;;;;;;;22.10;90.10;;;;;;5115795;28;19908;-39
2022/10/12 01:40:40;;;;;;;;;;;22.10;90.10;;;;;;5115840;28;19908;-38
2022/10/12 01:43:06;;;;;;;;;;;22.20;90.10;;;;;;5115875;28;19908;-39
2022/10/12 01:45:32;;;;;;;;;;;22.20;90.10;;;;;;5115592;28;19919;-38
2022/10/12 01:47:57;;;;;;;;;;;22.20;90.10;;;;;;5115492;28;19915;-39
2022/10/12 01:50:26;;;;;;;;;;;22.20;90.10;;;;;;5115570;28;20353;-39
2022/10/12 01:52:58;;;;;;;;;;;22.20;90.10;;;;;;5115558;28;19916;-38
2022/10/12 01:55:44;;;;;;;;;;;22.20;90.10;;;;;;5115481;28;20183;-39
2022/10/12 01:58:09;;;;;;;;;;;22.20;90.10;;;;;;5115373;28;19908;-39
2022/10/12 02:00:52;;;;;;;;;;;22.20;90.10;;;;;;5115528;28;19907;-39
2022/10/12 02:03:20;;;;;;;;;;;22.20;90.10;;;;;;5129346;27;19908;-38
2022/10/12 02:05:48;;;;;;;;;;;22.20;90.10;;;;;;5134917;27;20027;-39
2022/10/12 02:08:16;;;;;;;;;;;22.20;90.10;;;;;;5135701;27;19953;-39
2022/10/12 02:10:51;;;;;;;;;;;22.20;90.10;;;;;;5135562;27;19915;-39
2022/10/12 02:13:18;;;;;;;;;;;22.20;90.10;;;;;;5135799;27;20340;-38
2022/10/12 02:15:45;;;;;;;;;;;22.20;90.10;;;;;;5136071;27;19908;-38
2022/10/12 02:18:12;;;;;;;;;;;22.20;90.10;;;;;;5135394;27;20358;-38
2022/10/12 02:20:38;;;;;;;;;;;22.10;90.10;;;;;;5135308;27;20439;-39
2022/10/12 02:23:04;;;;;;;;;;;22.20;90.10;;;;;;5135776;27;20265;-38
2022/10/12 02:25:30;;;;;;;;;;;22.20;90.10;;;;;;5135600;27;19907;-38
2022/10/12 02:27:59;;;;;;;;;;;22.20;90.10;;;;;;5135577;27;19908;-38
2022/10/12 02:30:24;;;;;;;;;;;22.20;90.10;;;;;;5135513;27;20350;-38
2022/10/12 02:32:50;;;;;;;;;;;22.20;90.10;;;;;;5135534;27;19918;-38
2022/10/12 02:35:22;;;;;;;;;;;22.10;90.10;;;;;;5135146;27;19908;-38
2022/10/12 02:37:51;;;;;;;;;;;22.20;90.10;;;;;;5135156;27;19907;-39
2022/10/12 02:40:20;;;;;;;;;;;22.20;90.10;;;;;;5135353;27;19998;-39
2022/10/12 02:42:50;;;;;;;;;;;22.10;90.10;;;;;;5135292;27;19988;-39
2022/10/12 02:45:17;;;;;;;;;;;22.20;90.10;;;;;;5135629;27;19911;-38
2022/10/12 02:47:43;;;;;;;;;;;22.20;90.10;;;;;;5135205;27;19951;-38
2022/10/12 02:50:10;;;;;;;;;;;22.20;90.10;;;;;;5135223;27;19912;-39
2022/10/12 02:52:35;;;;;;;;;;;22.20;90.10;;;;;;5134990;27;19911;-38
2022/10/12 02:55:01;;;;;;;;;;;22.20;90.10;;;;;;5135349;27;20362;-39
2022/10/12 02:57:26;;;;;;;;;;;22.20;90.10;;;;;;5135554;27;19976;-38
2022/10/12 02:59:51;;;;;;;;;;;22.20;90.10;;;;;;5135137;27;19912;-38
2022/10/12 03:02:17;;;;;;;;;;;22.20;90.10;;;;;;5129346;27;19915;-39
2022/10/12 03:04:42;;;;;;;;;;;22.20;90.10;;;;;;5114558;28;19908;-38
2022/10/12 03:07:08;;;;;;;;;;;22.20;90.10;;;;;;5114581;28;20327;-39
2022/10/12 03:09:33;;;;;;;;;;;22.20;90.10;;;;;;5114424;28;19971;-38
2022/10/12 03:11:59;;;;;;;;;;;22.20;90.10;;;;;;5114777;28;19911;-38
2022/10/12 03:14:26;;;;;;;;;;;22.20;90.10;;;;;;5114376;28;19908;-38
2022/10/12 03:16:51;;;;;;;;;;;22.20;90.10;;;;;;5113195;28;19912;-38
2022/10/12 03:19:17;;;;;;;;;;;22.20;90.10;;;;;;5118054;28;19908;-38
2022/10/12 03:21:42;;;;;;;;;;;22.20;90.10;;;;;;5118620;28;19956;-38
2022/10/12 03:24:08;;;;;;;;;;;22.10;90.10;;;;;;5118577;28;20385;-39
2022/10/12 03:26:33;;;;;;;;;;;22.10;90.10;;;;;;5118532;28;19914;-39
2022/10/12 03:28:59;;;;;;;;;;;22.20;90.10;;;;;;5118411;28;20340;-39
2022/10/12 03:31:24;;;;;;;;;;;22.20;90.10;;;;;;5118276;28;20437;-39
2022/10/12 03:33:50;;;;;;;;;;;22.20;90.10;;;;;;5118258;28;19918;-39
2022/10/12 03:36:15;;;;;;;;;;;22.20;90.10;;;;;;5118274;28;20343;-38
2022/10/12 03:38:41;;;;;;;;;;;22.10;90.10;;;;;;5118251;28;19918;-39
2022/10/12 03:41:06;;;;;;;;;;;22.20;90.10;;;;;;5118359;28;20410;-38
2022/10/12 03:43:32;;;;;;;;;;;22.20;90.20;;;;;;5117964;28;20350;-38
2022/10/12 03:45:57;;;;;;;;;;;22.20;90.20;;;;;;5118194;28;19912;-38
2022/10/12 03:48:23;;;;;;;;;;;22.20;90.20;;;;;;5117825;28;19908;-39
2022/10/12 03:50:49;;;;;;;;;;;22.20;90.20;;;;;;5118004;28;19911;-39
2022/10/12 03:53:15;;;;;;;;;;;22.20;90.10;;;;;;5117967;28;20247;-38
2022/10/12 03:55:40;;;;;;;;;;;22.20;90.10;;;;;;5099364;28;19999;-39
2022/10/12 03:58:06;;;;;;;;;;;22.20;90.10;;;;;;5117975;28;19908;-39
2022/10/12 04:00:31;;;;;;;;;;;22.20;90.10;;;;;;5117801;28;19911;-38
2022/10/12 04:02:57;;;;;;;;;;;22.20;90.10;;;;;;5129376;27;19950;-38
2022/10/12 04:05:22;;;;;;;;;;;22.20;90.10;;;;;;5138317;27;19915;-39
2022/10/12 04:07:48;;;;;;;;;;;22.20;90.10;;;;;;5137788;27;19926;-38
2022/10/12 04:10:14;;;;;;;;;;;22.20;90.10;;;;;;5137797;27;20002;-39
2022/10/12 04:12:39;;;;;;;;;;;22.20;90.10;;;;;;5137776;27;19915;-38
2022/10/12 04:15:05;;;;;;;;;;;22.20;90.10;;;;;;5119542;27;19998;-38
2022/10/12 04:17:30;;;;;;;;;;;22.20;90.10;;;;;;5137943;27;19933;-39
2022/10/12 04:19:56;;;;;;;;;;;22.20;90.10;;;;;;5137672;27;20299;-38
2022/10/12 04:22:23;;;;;;;;;;;22.20;90.10;;;;;;5137849;27;19934;-38
2022/10/12 04:24:49;;;;;;;;;;;22.20;90.10;;;;;;5137874;27;20238;-39
2022/10/12 04:27:14;;;;;;;;;;;22.20;90.10;;;;;;5137785;27;19928;-39
2022/10/12 04:29:40;;;;;;;;;;;22.20;90.10;;;;;;5137098;27;19907;-39
2022/10/12 04:32:05;;;;;;;;;;;22.20;90.10;;;;;;5137773;27;20045;-38
2022/10/12 04:34:31;;;;;;;;;;;22.20;90.20;;;;;;5137587;27;19912;-38
2022/10/12 04:36:56;;;;;;;;;;;22.20;90.20;;;;;;5137413;27;19915;-39
2022/10/12 04:39:22;;;;;;;;;;;22.10;90.20;;;;;;5137268;27;19912;-38
2022/10/12 04:41:47;;;;;;;;;;;22.20;90.20;;;;;;5133533;27;19908;-39
2022/10/12 04:44:12;;;;;;;;;;;22.20;89.60;;;;;;5110490;28;19908;-39
2022/10/12 04:46:38;;;;;;;;;;;22.20;90.30;;;;;;5115899;28;20003;-48
2022/10/12 04:49:03;;;;;;;;;;;22.20;90.10;;;;;;5115314;28;19919;-46
2022/10/12 04:51:29;;;;;;;;;;;22.20;90.10;;;;;;5113974;27;19916;-39
2022/10/12 04:53:54;;;;;;;;;;;22.20;90.10;;;;;;5115136;28;19908;-39
2022/10/12 04:56:20;;;;;;;;;;;22.20;90.10;;;;;;5115536;28;20368;-40
2022/10/12 04:58:45;;;;;;;;;;;22.20;90.10;;;;;;5115291;28;19903;-40
2022/10/12 05:01:11;;;;;;;;;;;22.20;90.10;;;;;;5115075;28;19907;-39
2022/10/12 05:03:36;;;;;;;;;;;22.20;90.10;;;;;;5117461;27;19994;-39
2022/10/12 05:06:02;;;;;;;;;;;22.20;90.20;;;;;;5115011;28;19923;-39
2022/10/12 05:08:27;;;;;;;;;;;22.20;90.10;;;;;;5114690;28;20376;-39
2022/10/12 05:10:55;;;;;;;;;;;22.20;90.10;;;;;;5118104;27;19918;-39
2022/10/12 05:13:20;;;;;;;;;;;22.20;90.10;;;;;;5115985;28;19916;-40
2022/10/12 05:15:46;;;;;;;;;;;22.20;90.10;;;;;;5117933;27;20002;-40
2022/10/12 05:18:11;;;;;;;;;;;22.20;90.10;;;;;;5115854;28;19911;-40
2022/10/12 05:20:37;;;;;;;;;;;22.20;90.10;;;;;;5116007;28;20296;-39
2022/10/12 05:23:02;;;;;;;;;;;22.20;90.20;;;;;;5115910;28;19910;-39
2022/10/12 05:25:28;;;;;;;;;;;22.20;90.10;;;;;;5115449;28;19904;-40
2022/10/12 05:27:54;;;;;;;;;;;22.20;90.10;;;;;;5115771;28;19911;-40
2022/10/12 05:30:19;;;;;;;;;;;22.20;90.10;;;;;;5115743;28;19961;-40
2022/10/12 05:32:45;;;;;;;;;;;22.20;90.10;;;;;;5123399;27;19908;-40
2022/10/12 05:35:10;;;;;;;;;;;22.10;90.10;;;;;;5115588;28;19908;-40
2022/10/12 05:37:36;;;;;;;;;;;22.20;90.10;;;;;;5122633;27;19994;-39
2022/10/12 05:40:01;;;;;;;;;;;22.20;90.10;;;;;;5135441;27;19912;-39
2022/10/12 05:42:27;;;;;;;;;;;22.20;90.10;;;;;;5135822;27;20365;-39
2022/10/12 05:44:52;;;;;;;;;;;22.20;90.10;;;;;;5136031;27;19904;-39
2022/10/12 05:47:18;;;;;;;;;;;22.10;90.20;;;;;;5126351;27;19904;-40
2022/10/12 05:49:43;;;;;;;;;;;22.20;90.20;;;;;;5115170;28;20238;-39
2022/10/12 05:52:09;;;;;;;;;;;22.20;90.20;;;;;;5115039;28;19998;-40
2022/10/12 05:54:34;;;;;;;;;;;22.10;90.20;;;;;;5115435;28;19911;-39
2022/10/12 05:56:59;;;;;;;;;;;22.20;90.20;;;;;;5114954;28;19911;-39
2022/10/12 05:59:25;;;;;;;;;;;22.10;90.10;;;;;;5115411;28;19923;-39
2022/10/12 06:01:50;;;;;;;;;;;22.20;90.10;;;;;;5118558;27;20238;-39
2022/10/12 06:04:16;;;;;;;;;;;22.20;90.10;;;;;;5114916;28;19907;-39
2022/10/12 06:06:41;;;;;;;;;;;22.20;90.10;;;;;;5114949;28;20320;-39
2022/10/12 06:09:07;;;;;;;;;;;22.20;90.10;;;;;;5096693;28;19911;-39
2022/10/12 06:11:33;;;;;;;;;;;22.20;90.10;;;;;;5128742;27;19911;-39
2022/10/12 06:13:58;;;;;;;;;;;22.20;90.10;;;;;;5135085;27;19907;-50
2022/10/12 06:16:24;;;;;;;;;;;22.20;90.10;;;;;;5114052;28;20247;-39
2022/10/12 06:18:49;;;;;;;;;;;22.20;90.10;;;;;;5114796;28;20002;-39
2022/10/12 06:21:15;;;;;;;;;;;22.20;90.10;;;;;;5115052;28;19911;-39
2022/10/12 06:23:40;;;;;;;;;;;22.20;90.10;;;;;;5114542;28;20358;-41
2022/10/12 06:26:06;;;;;;;;;;;22.20;90.10;;;;;;5096660;28;19904;-39
2022/10/12 06:28:31;;;;;;;;;;;22.20;90.10;;;;;;5114304;28;19908;-39
2022/10/12 06:30:58;;;;;;;;;;;22.20;90.10;;;;;;5114800;28;19907;-39
2022/10/12 06:33:24;;;;;;;;;;;22.20;90.20;;;;;;5114597;28;19916;-39
2022/10/12 06:35:49;;;;;;;;;;;22.20;90.10;;;;;;5114222;28;19911;-40
2022/10/12 06:38:15;;;;;;;;;;;22.10;90.10;;;;;;5114511;28;20296;-39
2022/10/12 06:40:40;;;;;;;;;;;22.10;90.10;;;;;;5114353;28;19903;-39
2022/10/12 06:43:06;;;;;;;;;;;22.10;90.10;;;;;;5114991;28;20215;-39
2022/10/12 06:45:31;;;;;;;;;;;22.20;90.10;;;;;;5096204;28;19907;-39
2022/10/12 06:47:57;;;;;;;;;;;22.10;90.10;;;;;;5096262;28;19998;-39
2022/10/12 06:50:23;;;;;;;;;;;22.20;90.20;;;;;;5114452;28;19912;-39
2022/10/12 06:52:48;;;;;;;;;;;22.10;90.10;;;;;;5114237;28;19946;-39
2022/10/12 06:55:14;;;;;;;;;;;22.20;90.10;;;;;;5114088;28;19904;-39
2022/10/12 06:57:39;;;;;;;;;;;22.20;90.10;;;;;;5114786;28;19904;-39
2022/10/12 07:00:05;;;;;;;;;;;22.20;90.20;;;;;;5114066;28;20300;-39
2022/10/12 07:02:31;;;;;;;;;;;22.20;90.20;;;;;;5121647;27;20377;-39
2022/10/12 07:04:57;;;;;;;;;;;22.20;90.10;;;;;;5134344;27;19903;-39
2022/10/12 07:07:22;;;;;;;;;;;22.20;90.10;;;;;;5134979;28;19922;-39
2022/10/12 07:09:48;;;;;;;;;;;22.10;90.10;;;;;;5135172;28;19933;-39
2022/10/12 07:12:13;;;;;;;;;;;22.20;90.20;;;;;;5135345;28;19908;-40
2022/10/12 07:14:38;;;;;;;;;;;22.20;90.10;;;;;;5134581;28;19918;-39
2022/10/12 07:17:04;;;;;;;;;;;22.10;90.10;;;;;;5134811;28;19911;-39
2022/10/12 07:19:29;;;;;;;;;;;22.20;90.10;;;;;;5134834;28;20029;-39
2022/10/12 07:21:55;;;;;;;;;;;22.20;90.10;;;;;;5134569;28;20322;-39
2022/10/12 07:24:20;;;;;;;;;;;22.20;90.20;;;;;;5134554;28;19903;-39
2022/10/12 07:26:46;;;;;;;;;;;22.20;90.20;;;;;;5103342;28;20366;-40
2022/10/12 07:29:11;;;;;;;;;;;22.20;90.20;;;;;;5113758;28;19935;-39
2022/10/12 07:31:37;;;;;;;;;;;22.20;90.10;;;;;;5112763;28;19959;-39
2022/10/12 07:34:02;;;;;;;;;;;22.20;90.10;;;;;;5114207;28;19919;-39
2022/10/12 07:36:28;;;;;;;;;;;22.20;90.10;;;;;;5113090;28;19962;-39
2022/10/12 07:38:53;;;;;;;;;;;22.20;90.10;;;;;;5116985;28;19908;-39
2022/10/12 07:41:19;;;;;;;;;;;22.20;90.10;;;;;;5113926;28;19908;-39
2022/10/12 07:43:44;;;;;;;;;;;22.20;90.20;;;;;;5113592;28;20439;-39
2022/10/12 07:46:10;;;;;;;;;;;22.20;90.10;;;;;;5112935;28;19908;-40
2022/10/12 07:48:36;;;;;;;;;;;22.20;90.10;;;;;;5095773;28;19911;-39
2022/10/12 07:51:09;;;;;;;;;;;22.20;90.10;;;;;;5115897;28;19924;-41
2022/10/12 07:53:35;;;;;;;;;;;22.20;90.20;;;;;;5124307;28;20364;-41
2022/10/12 07:56:01;;;;;;;;;;;22.20;90.20;;;;;;5125767;28;19903;-41
2022/10/12 07:58:26;;;;;;;;;;;22.20;90.20;;;;;;5113825;28;20002;-41
2022/10/12 08:00:52;;;;;;;;;;;22.20;90.20;;;;;;5113628;28;19984;-41
2022/10/12 08:03:17;;;;;;;;;;;22.10;90.20;;;;;;5116176;28;19931;-51
2022/10/12 08:05:43;;;;;;;;;;;22.20;90.20;;;;;;5119030;27;19914;-48
2022/10/12 08:08:09;;;;;;;;;;;22.10;90.20;;;;;;5117479;28;19908;-51
2022/10/12 08:10:35;;;;;;;;;;;22.20;90.30;;;;;;5117428;27;19919;-46
2022/10/12 08:13:00;;;;;;;;;;;22.20;90.20;;;;;;5116725;27;19916;-47
2022/10/12 08:15:26;;;;;;;;;;;22.20;90.20;;;;;;5115302;28;20486;-47
2022/10/12 08:17:52;;;;;;;;;;;22.20;89.90;;;;;;5117322;28;19934;-51
2022/10/12 08:20:17;;;;;;;;;;;22.10;89.90;;;;;;5116760;27;20002;-49
2022/10/12 08:22:42;;;;;;;;;;;22.10;89.80;;;;;;5118118;27;19918;-51
2022/10/12 08:25:08;;;;;;;;;;;22.10;89.80;;;;;;5117680;27;19912;-38
2022/10/12 08:27:34;;;;;;;;;;;22.20;90.00;;;;;;5116429;27;19962;-39
2022/10/12 08:30:00;;;;;;;;;;;22.30;90.00;;;;;;5116133;27;19957;-39
2022/10/12 08:32:25;;;;;;;;;;;22.30;90.00;;;;;;5116703;28;19916;-40
2022/10/12 08:34:51;;;;;;;;;;;22.30;89.90;;;;;;5116139;27;19995;-39
2022/10/12 08:37:16;;;;;;;;;;;22.30;89.90;;;;;;5118384;27;19912;-38
2022/10/12 08:39:41;;;;;;;;;;;22.30;89.80;;;;;;5115280;27;19920;-39
2022/10/12 08:42:13;;;;;;;;;;;22.30;89.80;;;;;;5116508;28;20429;-38
2022/10/12 08:44:50;;;;;;;;;;;22.40;89.80;;;;;;5120111;27;19919;-38
2022/10/12 08:47:18;;;;;;;;;;;22.40;89.80;;;;;;5095945;28;20259;-39
2022/10/12 08:49:44;;;;;;;;;;;22.40;89.70;;;;;;5107959;28;19908;-40
2022/10/12 08:52:30;;;;;;;;;;;22.40;89.80;;;;;;5097218;28;20010;-39
2022/10/12 08:54:59;;;;;;;;;;;22.40;89.80;;;;;;5115376;27;20404;-39
2022/10/12 08:57:24;;;;;;;;;;;22.40;89.80;;;;;;5117825;27;19911;-39
2022/10/12 08:59:50;;;;;;;;;;;22.40;89.80;;;;;;5116688;28;19998;-39
2022/10/12 09:02:43;;;;;;;;;;;22.40;89.80;;;;;;5120993;27;20278;-39
2022/10/12 09:05:16;;;;;;;;;;;22.40;89.80;;;;;;5131169;27;19911;-39
2022/10/12 09:07:46;;;;;;;;;;;22.30;89.80;;;;;;5115645;27;19931;-41
2022/10/12 09:10:12;;;;;;;;;;;22.30;89.80;;;;;;5115884;28;19920;-39
2022/10/12 09:12:56;;;;;;;;;;;22.30;89.90;;;;;;5115737;27;20274;-43
2022/10/12 09:15:23;;;;;;;;;;;22.30;90.00;;;;;;5118243;27;19958;-39
2022/10/12 09:17:53;;;;;;;;;;;22.30;89.70;;;;;;5116027;28;19908;-39
2022/10/12 09:20:25;;;;;;;;;;;22.30;89.50;;;;;;5115779;28;19915;-39
2022/10/12 09:22:52;;;;;;;;;;;22.30;89.30;;;;;;5114073;27;19908;-39
2022/10/12 09:25:22;;;;;;;;;;;22.30;89.00;;;;;;5117540;27;20322;-39
2022/10/12 09:27:47;;;;;;;;;;;22.30;89.60;;;;;;5115772;28;19915;-40
2022/10/12 09:30:14;;;;;;;;;;;22.30;89.70;;;;;;5114949;27;19911;-39
2022/10/12 09:32:46;;;;;;;;;;;22.40;89.70;;;;;;5116675;27;19922;-38
2022/10/12 09:35:12;;;;;;;;;;;22.40;89.70;;;;;;5115781;28;19911;-39
2022/10/12 09:37:38;;;;;;;;;;;22.40;89.70;;;;;;5115336;27;19931;-39
2022/10/12 09:40:04;;;;;;;;;;;22.40;89.60;;;;;;5115027;27;20370;-39
2022/10/12 09:42:30;;;;;;;;;;;22.40;89.60;;;;;;5114391;28;19920;-39
2022/10/12 09:44:58;;;;;;;;;;;22.40;89.60;;;;;;5115251;28;19918;-39
2022/10/12 09:47:26;;;;;;;;;;;22.40;89.50;;;;;;5117657;27;19907;-39
2022/10/12 09:49:53;;;;;;;;;;;22.40;89.60;;;;;;5114016;28;20621;-38
2022/10/12 09:52:20;;;;;;;;;;;22.40;89.50;;;;;;5115404;28;20382;-39
2022/10/12 09:54:53;;;;;;;;;;;22.40;89.50;;;;;;5114451;27;20365;-47
2022/10/12 09:57:27;;;;;;;;;;;22.40;89.50;;;;;;5114838;28;19950;-40
2022/10/12 09:59:53;;;;;;;;;;;22.40;89.50;;;;;;5115097;28;20375;-39
2022/10/12 10:02:20;;;;;;;;;;;22.40;89.60;;;;;;5099071;27;19908;-39
2022/10/12 10:04:46;;;;;;;;;;;22.40;89.50;;;;;;5114026;28;19939;-39
2022/10/12 10:07:24;;;;;;;;;;;22.40;89.60;;;;;;5114379;27;20335;-40
2022/10/12 10:10:11;;;;;;;;;;;22.40;89.70;;;;;;5113959;28;19912;-39
2022/10/12 10:12:40;;;;;;;;;;;22.40;89.70;;;;;;5114693;27;20319;-39
2022/10/12 10:15:17;;;;;;;;;;;22.40;89.70;;;;;;5114741;28;19919;-39
2022/10/12 10:17:47;;;;;;;;;;;22.40;89.70;;;;;;5113799;27;20264;-39
2022/10/12 10:20:21;;;;;;;;;;;22.40;89.80;;;;;;5115114;28;19995;-39
2022/10/12 10:22:47;;;;;;;;;;;22.40;89.80;;;;;;5114416;27;20385;-40
2022/10/12 10:25:18;;;;;;;;;;;22.40;89.80;;;;;;5113195;27;19916;-39
2022/10/12 10:27:43;;;;;;;;;;;22.40;89.70;;;;;;5127416;27;19912;-39
2022/10/12 10:30:15;;;;;;;;;;;22.40;89.80;;;;;;5117092;27;19918;-39
2022/10/12 10:32:41;;;;;;;;;;;22.40;90.00;;;;;;5115976;27;20294;-39
2022/10/12 10:35:12;;;;;;;;;;;22.40;89.60;;;;;;5113048;27;19912;-39
2022/10/12 10:37:45;;;;;;;;;;;22.40;89.60;;;;;;5113823;27;19920;-39
2022/10/12 10:40:17;;;;;;;;;;;22.50;89.50;;;;;;5114107;27;19912;-39
2022/10/12 10:42:47;;;;;;;;;;;22.40;89.50;;;;;;5095721;28;19916;-39
2022/10/12 10:45:20;;;;;;;;;;;22.50;89.40;;;;;;5114156;27;19920;-39
2022/10/12 10:47:46;;;;;;;;;;;22.50;89.40;;;;;;5117418;27;19919;-41
2022/10/12 10:50:22;;;;;;;;;;;22.50;89.30;;;;;;5113943;28;19920;-39
2022/10/12 10:52:53;;;;;;;;;;;22.50;89.30;;;;;;5115391;28;19923;-39
2022/10/12 10:55:19;;;;;;;;;;;22.50;89.20;;;;;;5111494;28;19916;-39
2022/10/12 10:57:57;;;;;;;;;;;22.50;89.20;;;;;;5112060;28;19911;-39
2022/10/12 11:00:23;;;;;;;;;;;22.50;89.30;;;;;;5114090;28;19918;-39
2022/10/12 11:02:53;;;;;;;;;;;22.40;89.20;;;;;;5118608;27;19908;-39
2022/10/12 11:05:27;;;;;;;;;;;22.50;89.20;;;;;;5114359;28;19914;-39
2022/10/12 11:07:54;;;;;;;;;;;22.40;89.30;;;;;;5072835;28;19966;-39
2022/10/12 11:10:20;;;;;;;;;;;22.40;89.30;;;;;;5065279;28;19923;-39
2022/10/12 11:12:48;;;;;;;;;;;22.40;89.30;;;;;;5064711;28;19917;-40
2022/10/12 11:15:28;;;;;;;;;;;22.40;89.40;;;;;;5076569;28;20282;-39
2022/10/12 11:17:56;;;;;;;;;;;22.40;89.40;;;;;;5075595;28;20363;-39
2022/10/12 11:20:40;;;;;;;;;;;22.40;89.40;;;;;;5076076;28;19916;-40
2022/10/12 11:23:13;;;;;;;;;;;22.30;89.30;;;;;;5078901;28;20396;-40
2022/10/12 11:25:42;;;;;;;;;;;22.40;89.30;;;;;;5063155;28;19908;-39
2022/10/12 11:28:12;;;;;;;;;;;22.30;89.20;;;;;;5073316;28;19908;-39
2022/10/12 11:30:40;;;;;;;;;;;22.40;89.10;;;;;;5072842;28;19912;-39
2022/10/12 11:33:10;;;;;;;;;;;22.40;89.10;;;;;;5073005;28;20260;-39
2022/10/12 11:35:37;;;;;;;;;;;22.40;89.10;;;;;;5076257;28;19966;-39
2022/10/12 11:38:05;;;;;;;;;;;22.40;89.00;;;;;;5069118;28;19917;-39
2022/10/12 11:40:36;;;;;;;;;;;22.40;89.00;;;;;;5080396;28;19919;-39
2022/10/12 11:43:06;;;;;;;;;;;22.40;89.10;;;;;;5076818;28;19916;-39
2022/10/12 11:45:35;;;;;;;;;;;22.40;89.00;;;;;;5076947;28;20389;-39
2022/10/12 11:48:03;;;;;;;;;;;22.40;89.00;;;;;;5079121;28;19912;-40
2022/10/12 11:50:32;;;;;;;;;;;22.40;89.10;;;;;;5075139;28;19921;-41
2022/10/12 11:52:59;;;;;;;;;;;22.40;89.40;;;;;;5076592;28;19916;-39
2022/10/12 11:55:37;;;;;;;;;;;22.40;89.10;;;;;;5074454;28;19932;-41
2022/10/12 11:58:15;;;;;;;;;;;22.50;89.20;;;;;;5074745;28;19921;-39
2022/10/12 12:01:07;;;;;;;;;;;22.40;89.10;;;;;;5076573;28;19952;-39
2022/10/12 12:03:41;;;;;;;;;;;22.40;89.10;;;;;;5059054;28;19916;-39
2022/10/12 12:06:25;;;;;;;;;;;22.40;89.20;;;;;;5087677;28;19927;-39
2022/10/12 12:08:53;;;;;;;;;;;22.40;89.20;;;;;;5116571;27;19912;-40
2022/10/12 12:11:21;;;;;;;;;;;22.50;89.30;;;;;;5117244;28;19922;-40
2022/10/12 12:13:46;;;;;;;;;;;22.40;89.30;;;;;;5119092;27;19916;-40
2022/10/12 12:16:12;;;;;;;;;;;22.50;89.30;;;;;;5117261;28;19912;-40
2022/10/12 12:18:56;;;;;;;;;;;22.40;89.30;;;;;;5115379;27;19918;-40
2022/10/12 12:21:21;;;;;;;;;;;22.50;89.30;;;;;;5116002;27;19911;-40
2022/10/12 12:23:52;;;;;;;;;;;22.40;89.30;;;;;;5116551;27;20290;-39
2022/10/12 12:26:19;;;;;;;;;;;22.40;89.20;;;;;;5120227;27;19916;-40
2022/10/12 12:28:51;;;;;;;;;;;22.50;89.10;;;;;;5116584;28;20270;-40
2022/10/12 12:31:22;;;;;;;;;;;22.40;89.20;;;;;;5097511;27;20379;-40
2022/10/12 12:33:50;;;;;;;;;;;22.50;89.20;;;;;;5116298;28;19920;-45
2022/10/12 12:36:31;;;;;;;;;;;22.50;89.20;;;;;;5116178;27;19918;-39
2022/10/12 12:38:56;;;;;;;;;;;22.40;89.10;;;;;;5115016;28;19911;-39
2022/10/12 12:41:45;;;;;;;;;;;22.50;89.20;;;;;;5116682;27;20418;-39
2022/10/12 12:44:29;;;;;;;;;;;22.50;89.20;;;;;;5103769;27;19926;-41
2022/10/12 12:46:55;;;;;;;;;;;22.40;89.30;;;;;;5116109;27;19919;-40
2022/10/12 12:49:28;;;;;;;;;;;22.40;89.40;;;;;;5115591;28;19916;-40
2022/10/12 12:51:54;;;;;;;;;;;22.40;89.50;;;;;;5115105;27;19916;-40
2022/10/12 12:54:22;;;;;;;;;;;22.40;89.60;;;;;;5116463;27;19916;-41
2022/10/12 12:57:07;;;;;;;;;;;22.40;89.70;;;;;;5116726;28;19911;-41
2022/10/12 12:59:32;;;;;;;;;;;22.30;89.70;;;;;;5115354;27;19922;-42
2022/10/12 13:01:57;;;;;;;;;;;22.40;89.70;;;;;;5116726;27;19911;-43
2022/10/12 13:04:29;;;;;;;;;;;22.40;89.60;;;;;;5114884;27;19912;-44
2022/10/12 13:07:30;;;;;;;;;;;22.30;89.70;;;;;;5116808;27;19941;-41
2022/10/12 13:10:13;;;;;;;;;;;22.30;90.00;;;;;;5006006;28;19914;-41
2022/10/12 13:12:48;;;;;;;;;;;22.40;89.80;;;;;;5088531;28;20011;-41
2022/10/12 13:15:34;;;;;;;;;;;22.40;89.70;;;;;;5111522;27;19919;-40
2022/10/12 13:18:18;;;;;;;;;;;22.40;89.70;;;;;;5116135;28;19912;-41
2022/10/12 13:20:45;;;;;;;;;;;22.40;89.70;;;;;;5114243;27;19912;-39
2022/10/12 13:23:14;;;;;;;;;;;22.40;89.70;;;;;;5116304;28;19915;-39
2022/10/12 13:25:46;;;;;;;;;;;22.40;89.70;;;;;;5115277;27;19951;-39
2022/10/12 13:28:15;;;;;;;;;;;22.40;89.60;;;;;;5114143;27;19919;-39
2022/10/12 13:30:53;;;;;;;;;;;22.50;89.70;;;;;;5115398;27;19923;-39
2022/10/12 13:33:22;;;;;;;;;;;22.40;89.70;;;;;;5115389;27;19961;-40
2022/10/12 13:35:50;;;;;;;;;;;22.40;89.70;;;;;;5117433;27;19915;-39
2022/10/12 13:38:21;;;;;;;;;;;22.40;89.70;;;;;;5114485;28;20045;-40
2022/10/12 13:40:52;;;;;;;;;;;22.50;90.10;;;;;;5115377;27;20389;-39
2022/10/12 13:43:18;;;;;;;;;;;22.40;89.70;;;;;;5097007;27;19915;-41
2022/10/12 13:45:44;;;;;;;;;;;22.40;89.70;;;;;;5115622;28;19908;-41
2022/10/12 13:48:15;;;;;;;;;;;22.40;89.70;;;;;;5114479;28;19942;-41
2022/10/12 13:50:48;;;;;;;;;;;22.40;89.80;;;;;;5114947;27;19922;-47
2022/10/12 13:53:14;;;;;;;;;;;22.40;89.70;;;;;;5116332;27;20002;-47
2022/10/12 13:55:40;;;;;;;;;;;22.50;89.60;;;;;;5115011;28;19919;-45
2022/10/12 13:58:18;;;;;;;;;;;22.50;89.50;;;;;;5114265;27;20270;-43
2022/10/12 14:00:46;;;;;;;;;;;22.60;89.50;;;;;;5115328;28;19947;-43
2022/10/12 14:03:11;;;;;;;;;;;22.50;89.40;;;;;;5115549;27;20090;-44
2022/10/12 14:05:42;;;;;;;;;;;22.50;89.40;;;;;;5113682;27;19947;-43
2022/10/12 14:08:20;;;;;;;;;;;22.50;89.50;;;;;;5116436;27;19919;-44
2022/10/12 14:10:48;;;;;;;;;;;22.50;89.60;;;;;;5099235;27;19923;-44
2022/10/12 14:13:17;;;;;;;;;;;22.50;89.50;;;;;;5114950;28;20412;-46
2022/10/12 14:15:42;;;;;;;;;;;22.60;89.40;;;;;;5114753;28;19915;-42
2022/10/12 14:18:26;;;;;;;;;;;22.60;89.40;;;;;;5114880;28;19908;-43
2022/10/12 14:21:02;;;;;;;;;;;22.60;89.40;;;;;;5113566;28;19966;-42
2022/10/12 14:23:28;;;;;;;;;;;22.60;89.40;;;;;;5113867;28;19998;-42